Webcam op het Zuiden Meer informatie Webcam op het Zuiden


Webcam op het Westen Meer informatie Webcam op het Westen


Onweer radar Meer informatie blitzortung!


Regen radar  rain snow radar


Lokaal brand risico:
CBI


Regionaal brand risico: Meer informatie


Lokaal brand risico:
Gebaseerd op actuele waarde
CBI


Bezoek ook deze websites:

Template documentation
and downloads

And another site



Extreme hitte van: 12-08-2020 09:00 tot: 14-08-2020 09:00 waarschuwing voor: Extreme hitte niveau: Geel info button
De komende dagen is er sprake van aanhoudende hitte.Het Nationaal Hitteplan van het RIVM is actief.Er is sprake van aanhoudende hitte.Besteed extra zorg en aandacht aan kwetsbare mensen in uw omgeving.Met name ouderen en mensen met een chronische aandoening wordt geadviseerd maatregelen te nemen: drink voldoende, houd uzelf en uw woning koel.

METAR rapporten vliegvelden

   
ETWM - Meppen, Germany
Afstand tot: O 29 km
Gewijzigd: 12-08-2020 11:20
Licht bewolkt  
Licht bewolkt  
   Wind: OZO 9.3 km/h
Wind: OZO 9.3 km/h
Temperatuur: 28°C
Gevoelstemperatuur: 28°C
Dauwpunt: 15°C
Vochtigheid: 45%
Barometer: 1016 hPa
Bewolking: Licht bewolkt
Zicht: meer dan 10 km
Bewolking: Licht bewolkt 35000 ft
ETWM 120920Z 12005KT 9999 FEW350 28/15 Q1016 BLU+
EHGG - Groningen/Eelde, Netherlands
Afstand tot: NNW 47 km
Gewijzigd: 12-08-2020 11:25
Helder  
Helder  
   Wind: Oosten 11.1 km/h
Wind: Oosten 11.1 km/h
Temperatuur: 28°C
Gevoelstemperatuur: 29°C
Dauwpunt: 18°C
Vochtigheid: 55%
Barometer: 1015 hPa
Bewolking: Helder
Zicht: meer dan 10 km
Bewolking: Helder
EHGG 120925Z AUTO 09006KT 050V130 9999 NCD 28/18 Q1015 NOSIG
EDDG - Muenster/Osnabru, Germany
Afstand tot: ZO 87 km
Gewijzigd: 12-08-2020 11:20
Helder  
Helder  
   Wind: ZO 13 km/h
Wind: ZO 13 km/h
Temperatuur: 30°C
Gevoelstemperatuur: 30°C
Dauwpunt: 16°C
Vochtigheid: 43%
Barometer: 1016 hPa
Zicht: meer dan 10 km
Bewolking: Helder
EDDG 120920Z 14007KT 070V220 CAVOK 30/16 Q1016 NOSIG
EHLW - Leeuwarden Rnlaf, Netherlands
Afstand tot: NW 93 km
Gewijzigd: 12-08-2020 11:25
Helder  
Helder  
   Wind: OZO 13 km/h
Wind: OZO 13 km/h
Temperatuur: 28°C
Gevoelstemperatuur: 28°C
Dauwpunt: 17°C
Vochtigheid: 51%
Barometer: 1015 hPa
Bewolking: Helder
Zicht: meer dan 10 km
Bewolking: Helder
EHLW 120925Z AUTO 11007KT 010V160 9999 NCD 28/17 Q1015 BLU NOSIG
ETNT - Wittmundhaven(Ga, Germany
Afstand tot: NNO 100 km
Gewijzigd: 12-08-2020 11:20
Licht bewolkt  
Licht bewolkt  
   Wind: OZO 14.8 km/h
Wind: OZO 14.8 km/h
Temperatuur: 25°C
Dauwpunt: 16°C
Vochtigheid: 57%
Barometer: 1017 hPa
Bewolking: Licht bewolkt
Zicht: meer dan 10 km
Bewolking: Licht bewolkt 32000 ft
ETNT 120920Z 11008KT 9999 FEW320 25/16 Q1017 BLACKBLU+BLU+
ETND - Diepholz (ger-Af, Germany
Afstand tot: O 104 km
Gewijzigd: 12-08-2020 11:20
Gedeeltelijk bewolkt  
Gedeeltelijk bewolkt  
   Wind: Oosten 18.5 km/h
Wind: Oosten 18.5 km/h
Temperatuur: 29°C
Gevoelstemperatuur: 29°C
Dauwpunt: 16°C
Vochtigheid: 45%
Barometer: 1017 hPa
Bewolking: Gedeeltelijk bewolkt
Zicht: meer dan 10 km
Bewolking: Gedeeltelijk bewolkt 30000 ft
ETND 120920Z 10010KT 9999 SCT300 29/16 Q1017 BLU+
ETNT - Wittmundhaven(Ga, Germany
Afstand tot: NNO 102 km
Gewijzigd: 12-08-2020 11:20
Licht bewolkt  
Licht bewolkt  
   Wind: OZO 14.8 km/h
Wind: OZO 14.8 km/h
Temperatuur: 25°C
Dauwpunt: 16°C
Vochtigheid: 57%
Barometer: 1017 hPa
Bewolking: Licht bewolkt
Zicht: meer dan 10 km
Bewolking: Licht bewolkt 32000 ft
ETNT 120920Z 11008KT 9999 FEW320 25/16 Q1017 BLACKBLU+BLU+
EHDL - Deelen Rnlafb, Netherlands
Afstand tot: ZW 103 km
Gewijzigd: 12-08-2020 11:25
Helder  
Helder  
   Wind: ZO 7.4 km/h
Wind: ZO 7.4 km/h
Temperatuur: 30°C
Gevoelstemperatuur: 31°C
Dauwpunt: 17°C
Vochtigheid: 46%
Barometer: 1014 hPa
Bewolking: Helder
Zicht: meer dan 10 km
Bewolking: Helder
EHDL 120925Z AUTO 14004KT 9999 NCD 30/17 Q1014 BLU
EHMA - Awg-1 Sea, Netherlands
Afstand tot: NW 105 km
Gewijzigd: 12-08-2020 11:25
Helder  
Helder  
   Wind: Oosten 24.1 km/h
Wind: Oosten 24.1 km/h
Temperatuur: 26°C
Dauwpunt: 18°C
Vochtigheid: 61%
Barometer: 1016 hPa
Bewolking: Helder
Zicht: meer dan 10 km
Bewolking: Helder
EHMA 120925Z AUTO 10013KT 9999 NCD 26/18 Q1016
EDDW - Bremen, Germany
Afstand tot: ONO 135 km
Gewijzigd: 12-08-2020 11:20
Helder  
Helder  
   Wind: Oosten 18.5 km/h
Wind: Oosten 18.5 km/h
Temperatuur: 29°C
Gevoelstemperatuur: 29°C
Dauwpunt: 16°C
Vochtigheid: 45%
Barometer: 1017 hPa
Zicht: meer dan 10 km
Bewolking: Helder
EDDW 120920Z 10010KT 060V130 CAVOK 29/16 Q1017 NOSIG
EHVL - Vlieland Island, Netherlands
Afstand tot: WNW 138 km
Gewijzigd: 12-08-2020 11:25
Grotendeels bewolkt  
Grotendeels bewolkt  
   Wind: OZO 16.7 km/h
Wind: OZO 16.7 km/h
Temperatuur: 26°C
Dauwpunt: 18°C
Vochtigheid: 61%
Barometer: 1015 hPa
Bewolking: Grotendeels bewolkt
Zicht: meer dan 10 km
Bewolking: Grotendeels bewolkt 31000 ft
EHVL 120925Z AUTO 12009KT 9999 BKN310 26/18 Q1015 BLU
EDLV - Niederrhein, Germany
Afstand tot: ZZW 139 km
Gewijzigd: 12-08-2020 11:20
Helder  
Helder  
   Wind: ZO 13 km/h
Wind: ZO 13 km/h
Temperatuur: 28°C
Gevoelstemperatuur: 29°C
Dauwpunt: 18°C
Vochtigheid: 55%
Barometer: 1015 hPa
Zicht: meer dan 10 km
Bewolking: Helder
EDLV 120920Z 14007KT 090V180 CAVOK 28/18 Q1015
EHKD - De Kooy (navy), Netherlands
Afstand tot: W 144 km
Gewijzigd: 12-08-2020 11:25
Helder  
Helder  
   Wind: ONO 16.7 km/h
Wind: ONO 16.7 km/h
Temperatuur: 26°C
Dauwpunt: 20°C
Vochtigheid: 70%
Barometer: 1015 hPa
Bewolking: Helder
Zicht: meer dan 10 km
Bewolking: Helder
EHKD 120925Z AUTO 07009KT 030V110 9999 NCD 26/20 Q1015 BLU NOSIG
EDLW - Dortmund/Wickede, Germany
Afstand tot: ZZO 150 km
Gewijzigd: 12-08-2020 11:20
Helder  
Helder  
   Wind: ZO 18.5 km/h
Wind: ZO 18.5 km/h
Temperatuur: 27°C
Gevoelstemperatuur: 27°C
Dauwpunt: 16°C
Vochtigheid: 51%
Barometer: 1016 hPa
Zicht: meer dan 10 km
Bewolking: Helder
EDLW 120920Z 13010KT 090V170 CAVOK 27/16 Q1016
EHVK - Volkel Rnlafb, Netherlands
Afstand tot: ZZW 149 km
Gewijzigd: 12-08-2020 11:25
Bewolking  
Bewolking  
   Wind: ZO 14.8 km/h
Wind: ZO 14.8 km/h
Temperatuur: 29°C
Gevoelstemperatuur: 30°C
Dauwpunt: 18°C
Vochtigheid: 51%
Barometer: 1014 hPa
Bewolking: Bewolking
Zicht: meer dan 10 km
Bewolking: Licht bewolkt 7400 ft,
Gedeeltelijk bewolkt 9600 ft,
Bewolking 15000 ft
EHVK 120925Z AUTO 14008KT 110V180 9999 FEW074 SCT096 OVC150 29/18 Q1014 BLU NOSIG
EDLW - Dortmund/Wickede, Germany
Afstand tot: ZZO 150 km
Gewijzigd: 12-08-2020 11:20
Helder  
Helder  
   Wind: ZO 18.5 km/h
Wind: ZO 18.5 km/h
Temperatuur: 27°C
Gevoelstemperatuur: 27°C
Dauwpunt: 16°C
Vochtigheid: 51%
Barometer: 1016 hPa
Zicht: meer dan 10 km
Bewolking: Helder
EDLW 120920Z 13010KT 090V170 CAVOK 27/16 Q1016
EHMG - L9-Ff-1 Sea, Netherlands
Afstand tot: NW 155 km
Gewijzigd: 12-08-2020 11:25
Helder  
Helder  
   Wind: ZO 22.2 km/h
Wind: ZO 22.2 km/h
Temperatuur: 22°C
Dauwpunt: 18°C
Vochtigheid: 78%
Barometer: 1016 hPa
Bewolking: Helder
Zicht: meer dan 10 km
Bewolking: Helder
EHMG 120925Z AUTO 13012KT 9999 NCD 22/18 Q1016
ETHB - Buckeburg(Ger-Ar, Germany
Afstand tot: OZO 161 km
Gewijzigd: 12-08-2020 11:20
Licht bewolkt  
Licht bewolkt  
   Wind: ZZO 22.2 km/h
Wind: ZZO 22.2 km/h
Temperatuur: 30°C
Dauwpunt: 14°C
Vochtigheid: 38%
Barometer: 1017 hPa
Bewolking: Licht bewolkt
Zicht: meer dan 10 km
Bewolking: Licht bewolkt 10000 ft
ETHB 120920Z 15012KT 9999 FEW100 30/14 Q1017 BLACKBLU+BLU+
ETMN - Nordholz (ger-Na, Germany
Afstand tot: NO 164 km
Gewijzigd: 12-08-2020 11:20
Grotendeels bewolkt  
Grotendeels bewolkt  
   Wind: Oosten 14.8 km/h
Wind: Oosten 14.8 km/h
Temperatuur: 26°C
Dauwpunt: 16°C
Vochtigheid: 54%
Barometer: 1018 hPa
Bewolking: Grotendeels bewolkt
Zicht: meer dan 10 km
Bewolking: Grotendeels bewolkt 38000 ft
ETMN 120920Z 10008KT 9999 BKN380 26/16 Q1018 BLU+BLU+
EDDL - Duesseldorf, Germany
Afstand tot: Z 165 km
Gewijzigd: 12-08-2020 11:20
Helder  
Helder  
   Wind: ZZO 16.7 km/h
Wind: ZZO 16.7 km/h
Temperatuur: 27°C
Gevoelstemperatuur: 28°C
Dauwpunt: 18°C
Vochtigheid: 58%
Barometer: 1015 hPa
Zicht: meer dan 10 km
Bewolking: Helder
EDDL 120920Z 16009KT 120V190 CAVOK 27/18 Q1015 NOSIG
EDLN - Monchengladbach, Germany
Afstand tot: Z 174 km
Gewijzigd: 12-08-2020 11:20
Helder  
Helder  
   Wind: ZO 18.5 km/h
Wind: ZO 18.5 km/h
Temperatuur: 26°C
Dauwpunt: 20°C
Vochtigheid: 70%
Barometer: 1015 hPa
Zicht: meer dan 10 km
Bewolking: Helder
EDLN 120920Z 13010KT 110V170 CAVOK 26/20 Q1015

Script ontwikkeld door  Saratoga-weather.org Aangepast voor de template door  Weerstation Leuven

U vindt ons ook hier:

Het Weer Aktueel

European Weather Network

Weather Underground

Wetterpage 24

Apparatuur in gebruik:

Weerstation
Davis VP2

Weerprogramma
Meteohub

Hardware
RaspberryPI, Wireless Weather Envoy, MeteoStick, TP-Link MR3020

Leverancier
Weerhuisje.nl weerstations

Davis VP2

Meteohub

RaspberryPI, Wireless Weather Envoy, MeteoStick, TP-Link MR3020

Weerhuisje.nl weerstations